createdAt,value
2018-12-27T00:00:21.099Z,63.97
2018-12-27T00:01:28.144Z,63.94
2018-12-27T00:02:33.050Z,63.96
2018-12-27T00:03:37.955Z,63.98
2018-12-27T00:04:42.890Z,64.00
2018-12-27T00:05:47.792Z,64.01
2018-12-27T00:06:52.942Z,64.01
2018-12-27T00:07:57.997Z,64.02
2018-12-27T00:09:03.695Z,64.02
2018-12-27T00:10:08.695Z,64.04
2018-12-27T00:11:13.597Z,64.06
2018-12-27T00:12:18.687Z,64.07
2018-12-27T00:13:23.663Z,64.08
2018-12-27T00:14:28.594Z,64.07
2018-12-27T00:15:33.525Z,64.07
2018-12-27T00:16:38.683Z,64.09
2018-12-27T00:17:43.579Z,64.08
2018-12-27T00:18:48.575Z,64.08
2018-12-27T00:19:53.469Z,64.07
2018-12-27T00:20:58.396Z,64.08
2018-12-27T00:22:03.315Z,64.11
2018-12-27T00:23:08.231Z,64.14
2018-12-27T00:24:13.388Z,64.15
2018-12-27T00:25:20.422Z,64.17
2018-12-27T00:26:25.199Z,64.19
2018-12-27T00:27:30.733Z,64.23
2018-12-27T00:28:35.650Z,64.27
2018-12-27T00:29:40.554Z,64.28
2018-12-27T00:30:45.630Z,64.32
2018-12-27T00:31:51.008Z,64.35
2018-12-27T00:33:02.934Z,64.38
2018-12-27T00:34:03.015Z,64.39
2018-12-27T00:35:08.045Z,64.38
2018-12-27T00:36:13.096Z,64.42
2018-12-27T00:37:18.232Z,64.46
2018-12-27T00:38:23.511Z,64.45
2018-12-27T00:39:28.691Z,64.43
2018-12-27T00:40:33.718Z,64.46
2018-12-27T00:41:38.745Z,64.52
2018-12-27T00:42:43.791Z,64.58
2018-12-27T00:43:48.820Z,64.60
2018-12-27T00:44:53.867Z,64.63
2018-12-27T00:45:58.954Z,64.72
2018-12-27T00:47:04.000Z,64.73
2018-12-27T00:48:09.058Z,64.79
2018-12-27T00:49:14.103Z,64.81
2018-12-27T00:50:19.122Z,64.82
2018-12-27T00:51:24.183Z,64.83
2018-12-27T00:52:29.188Z,64.84
2018-12-27T00:53:34.520Z,64.87
2018-12-27T00:54:39.622Z,64.88
2018-12-27T00:55:44.660Z,64.93
2018-12-27T00:56:49.967Z,64.96
2018-12-27T00:57:55.004Z,64.97
2018-12-27T00:59:00.084Z,64.96
2018-12-27T01:00:05.156Z,64.94
2018-12-27T01:01:10.196Z,64.95
2018-12-27T01:02:15.249Z,64.93
2018-12-27T01:03:20.449Z,64.89
2018-12-27T01:04:25.500Z,64.90
2018-12-27T01:05:30.661Z,64.85
2018-12-27T01:06:35.692Z,64.87
2018-12-27T01:07:40.724Z,64.86
2018-12-27T01:08:45.762Z,64.86
2018-12-27T01:09:51.072Z,64.87
2018-12-27T01:10:56.351Z,64.83
2018-12-27T01:12:01.388Z,64.80
2018-12-27T01:13:06.426Z,64.80
2018-12-27T01:14:11.468Z,64.79
2018-12-27T01:15:16.514Z,64.82
2018-12-27T01:16:21.578Z,64.84
2018-12-27T01:17:26.629Z,64.89
2018-12-27T01:18:31.681Z,64.83
2018-12-27T01:19:36.708Z,64.90
2018-12-27T01:20:41.776Z,64.88
2018-12-27T01:21:46.809Z,64.88
2018-12-27T01:22:51.833Z,64.90
2018-12-27T01:23:56.887Z,64.90
2018-12-27T01:25:02.157Z,64.90
2018-12-27T01:26:07.470Z,64.88
2018-12-27T01:27:12.508Z,64.85
2018-12-27T01:28:17.597Z,64.83
2018-12-27T01:29:22.640Z,64.82
2018-12-27T01:30:27.681Z,64.83
2018-12-27T01:31:32.789Z,64.82
2018-12-27T01:32:37.817Z,64.79
2018-12-27T01:33:43.092Z,64.76
2018-12-27T01:34:48.595Z,64.77
2018-12-27T01:35:53.625Z,64.76
2018-12-27T01:36:58.936Z,64.74
2018-12-27T01:38:03.969Z,64.73
2018-12-27T01:39:09.033Z,64.70
2018-12-27T01:40:14.580Z,64.66
2018-12-27T01:41:19.624Z,64.62
2018-12-27T01:42:24.822Z,64.64
2018-12-27T01:43:29.830Z,64.64
2018-12-27T01:44:34.904Z,64.64
2018-12-27T01:45:39.936Z,64.67
2018-12-27T01:46:45.321Z,64.65
2018-12-27T01:47:50.384Z,64.61
2018-12-27T01:48:55.673Z,64.59
2018-12-27T01:50:00.707Z,64.57
2018-12-27T01:51:05.767Z,64.58
2018-12-27T01:52:10.806Z,64.59
2018-12-27T01:53:16.402Z,64.58
2018-12-27T01:54:21.769Z,64.58
2018-12-27T01:55:26.815Z,64.57
2018-12-27T01:56:31.877Z,64.57
2018-12-27T01:57:36.963Z,64.57
2018-12-27T01:58:42.037Z,64.58
2018-12-27T01:59:47.324Z,64.60
2018-12-27T02:00:52.361Z,64.63
2018-12-27T02:01:57.425Z,64.63
2018-12-27T02:03:02.461Z,64.64
2018-12-27T02:04:07.518Z,64.66
2018-12-27T02:05:12.581Z,64.66
2018-12-27T02:06:20.888Z,64.65
2018-12-27T02:07:26.180Z,64.65
2018-12-27T02:08:31.210Z,64.62
2018-12-27T02:09:36.298Z,64.65
2018-12-27T02:10:41.294Z,64.67
2018-12-27T02:11:46.318Z,64.66
2018-12-27T02:12:51.341Z,64.66
2018-12-27T02:13:56.379Z,64.70
2018-12-27T02:15:01.713Z,64.74
2018-12-27T02:16:06.985Z,64.76
2018-12-27T02:17:12.282Z,64.85
2018-12-27T02:18:17.575Z,64.88
2018-12-27T02:19:22.622Z,64.91
2018-12-27T02:20:27.962Z,64.95
2018-12-27T02:21:33.008Z,64.96
2018-12-27T02:22:38.286Z,65.02
2018-12-27T02:23:43.321Z,65.03
2018-12-27T02:24:48.378Z,65.03
2018-12-27T02:25:53.455Z,65.01
2018-12-27T02:26:58.544Z,65.02
2018-12-27T02:28:03.595Z,65.07
2018-12-27T02:29:08.621Z,65.10
2018-12-27T02:30:13.654Z,65.12
2018-12-27T02:31:18.742Z,65.14
2018-12-27T02:32:24.005Z,65.13
2018-12-27T02:33:35.220Z,65.14
2018-12-27T02:34:35.855Z,65.16
2018-12-27T02:35:40.918Z,65.16
2018-12-27T02:36:45.972Z,65.16
2018-12-27T02:37:51.250Z,65.18
2018-12-27T02:38:56.303Z,65.16
2018-12-27T02:40:01.625Z,65.19
2018-12-27T02:41:06.903Z,65.19
2018-12-27T02:42:12.212Z,65.19
2018-12-27T02:43:17.229Z,65.19
2018-12-27T02:44:22.359Z,65.21
2018-12-27T02:45:27.393Z,65.17
2018-12-27T02:46:32.430Z,65.17
2018-12-27T02:47:37.538Z,65.16
2018-12-27T02:48:42.818Z,65.10
2018-12-27T02:49:47.901Z,65.08
2018-12-27T02:50:52.959Z,65.07
2018-12-27T02:51:58.006Z,65.04
2018-12-27T02:53:03.103Z,65.02
2018-12-27T02:54:08.138Z,64.99
2018-12-27T02:55:13.457Z,65.02
2018-12-27T02:56:18.508Z,65.04
2018-12-27T02:57:23.549Z,65.03
2018-12-27T02:58:28.582Z,65.07
2018-12-27T02:59:33.621Z,65.07
2018-12-27T03:00:38.653Z,65.15
2018-12-27T03:01:43.681Z,65.17
2018-12-27T03:02:48.716Z,65.17
2018-12-27T03:03:53.765Z,65.18
2018-12-27T03:04:59.047Z,65.21
2018-12-27T03:06:04.089Z,65.18
2018-12-27T03:07:09.120Z,65.25
2018-12-27T03:08:14.171Z,65.26
2018-12-27T03:09:19.194Z,65.26
2018-12-27T03:10:24.259Z,65.27
2018-12-27T03:11:29.278Z,65.26
2018-12-27T03:12:34.304Z,65.24
2018-12-27T03:13:39.571Z,65.22
2018-12-27T03:14:44.629Z,65.19
2018-12-27T03:15:49.670Z,65.15
2018-12-27T03:16:54.834Z,65.13
2018-12-27T03:17:59.846Z,65.12
2018-12-27T03:19:04.896Z,65.14
2018-12-27T03:20:10.019Z,65.12
2018-12-27T03:21:15.077Z,65.14
2018-12-27T03:22:20.390Z,65.16
2018-12-27T03:23:25.431Z,65.20
2018-12-27T03:24:30.456Z,65.23
2018-12-27T03:25:35.499Z,65.25
2018-12-27T03:26:40.533Z,65.28
2018-12-27T03:27:45.593Z,65.31
2018-12-27T03:28:50.653Z,65.29
2018-12-27T03:29:55.697Z,65.30
2018-12-27T03:31:00.742Z,65.30
2018-12-27T03:32:05.782Z,65.33
2018-12-27T03:33:10.808Z,65.34
2018-12-27T03:34:15.847Z,65.31
2018-12-27T03:35:21.119Z,65.38
2018-12-27T03:36:26.415Z,65.40
2018-12-27T03:37:31.447Z,65.49
2018-12-27T03:38:36.733Z,65.54
2018-12-27T03:39:41.799Z,65.61
2018-12-27T03:40:46.843Z,65.70
2018-12-27T03:41:51.906Z,65.75
2018-12-27T03:42:56.937Z,65.79
2018-12-27T03:44:02.011Z,65.80
2018-12-27T03:45:07.025Z,65.85
2018-12-27T03:46:12.058Z,65.84
2018-12-27T03:47:17.198Z,65.89
2018-12-27T03:48:22.233Z,65.94
2018-12-27T03:49:27.512Z,65.99
2018-12-27T03:50:32.878Z,66.03
2018-12-27T03:51:37.908Z,66.09
2018-12-27T03:52:42.955Z,66.12
2018-12-27T03:53:47.982Z,66.17
2018-12-27T03:54:53.264Z,66.18
2018-12-27T03:55:58.561Z,66.22
2018-12-27T03:57:03.579Z,66.23
2018-12-27T03:58:08.779Z,66.25
2018-12-27T03:59:13.972Z,66.25
2018-12-27T04:00:19.514Z,66.23
2018-12-27T04:01:24.797Z,66.23
2018-12-27T04:02:29.818Z,66.25
2018-12-27T04:03:34.872Z,66.28
2018-12-27T04:04:40.147Z,66.27
2018-12-27T04:05:45.177Z,66.23
2018-12-27T04:06:50.198Z,66.24
2018-12-27T04:07:56.606Z,66.22
2018-12-27T04:09:01.839Z,66.24
2018-12-27T04:10:07.158Z,66.29
2018-12-27T04:11:12.198Z,66.36
2018-12-27T04:12:17.247Z,66.40
2018-12-27T04:13:22.277Z,66.39
2018-12-27T04:14:27.324Z,66.41
2018-12-27T04:15:32.253Z,66.42
2018-12-27T04:16:37.492Z,66.42
2018-12-27T04:17:42.655Z,66.41
2018-12-27T04:18:47.655Z,66.44
2018-12-27T04:19:52.568Z,66.48
2018-12-27T04:20:57.554Z,66.50
2018-12-27T04:22:02.592Z,66.54
2018-12-27T04:23:07.896Z,66.54
2018-12-27T04:24:13.391Z,66.54
2018-12-27T04:25:18.724Z,66.53
2018-12-27T04:26:23.871Z,66.53
2018-12-27T04:27:29.256Z,66.58
2018-12-27T04:28:34.407Z,66.57
2018-12-27T04:29:39.562Z,66.56
2018-12-27T04:30:45.529Z,66.57
2018-12-27T04:31:51.087Z,66.61
2018-12-27T04:32:56.975Z,66.60
2018-12-27T04:34:09.439Z,66.60
2018-12-27T04:35:11.597Z,66.63
2018-12-27T04:36:16.772Z,66.66
2018-12-27T04:37:21.699Z,66.65
2018-12-27T04:38:26.619Z,66.64
2018-12-27T04:39:31.518Z,66.62
2018-12-27T04:40:36.449Z,66.62
2018-12-27T04:41:42.025Z,66.63
2018-12-27T04:42:47.207Z,66.60
2018-12-27T04:43:52.365Z,66.57
2018-12-27T04:44:57.326Z,66.56
2018-12-27T04:46:02.240Z,66.56
2018-12-27T04:47:07.160Z,66.50
2018-12-27T04:48:12.137Z,66.51
2018-12-27T04:49:17.608Z,66.51
2018-12-27T04:50:22.520Z,66.48
2018-12-27T04:51:27.678Z,66.42
2018-12-27T04:52:33.081Z,66.42
2018-12-27T04:53:37.986Z,66.40
2018-12-27T04:54:42.897Z,66.37
2018-12-27T04:55:48.056Z,66.33
2018-12-27T04:56:52.972Z,66.31
2018-12-27T04:57:57.903Z,66.32
2018-12-27T04:59:02.803Z,66.29
2018-12-27T05:00:08.466Z,66.30
2018-12-27T05:01:13.446Z,66.29
2018-12-27T05:02:18.424Z,66.30
2018-12-27T05:03:23.594Z,66.29
2018-12-27T05:04:28.761Z,66.30
2018-12-27T05:05:33.665Z,66.27
2018-12-27T05:06:38.643Z,66.32
2018-12-27T05:07:43.545Z,66.31
2018-12-27T05:08:48.788Z,66.28
2018-12-27T05:09:53.708Z,66.24
2018-12-27T05:10:58.610Z,66.27
2018-12-27T05:12:03.523Z,66.23
2018-12-27T05:13:08.550Z,66.25
2018-12-27T05:14:13.504Z,66.25
2018-12-27T05:15:18.441Z,66.25
2018-12-27T05:16:23.368Z,66.26
2018-12-27T05:17:28.518Z,66.24
2018-12-27T05:18:33.448Z,66.24
2018-12-27T05:19:38.477Z,66.22
2018-12-27T05:20:43.382Z,66.22
2018-12-27T05:21:48.293Z,66.20
2018-12-27T05:22:53.445Z,66.17
2018-12-27T05:23:58.420Z,66.19
2018-12-27T05:25:03.417Z,66.13
2018-12-27T05:26:08.337Z,66.11
2018-12-27T05:27:13.249Z,66.13
2018-12-27T05:28:18.161Z,66.17
2018-12-27T05:29:23.067Z,66.22
2018-12-27T05:30:30.816Z,66.24
2018-12-27T05:31:35.729Z,66.27
2018-12-27T05:32:41.161Z,66.28
2018-12-27T05:33:46.340Z,66.27
2018-12-27T05:34:51.274Z,66.26
2018-12-27T05:35:56.201Z,66.29
2018-12-27T05:37:01.148Z,66.29
2018-12-27T05:38:06.086Z,66.25
2018-12-27T05:39:11.000Z,66.23
2018-12-27T05:40:16.159Z,66.23
2018-12-27T05:41:21.164Z,66.24
2018-12-27T05:42:26.020Z,66.24
2018-12-27T05:43:31.421Z,66.24
2018-12-27T05:44:36.313Z,66.25
2018-12-27T05:45:41.230Z,66.27
2018-12-27T05:46:46.158Z,66.27
2018-12-27T05:47:51.058Z,66.28
2018-12-27T05:48:55.972Z,66.27
2018-12-27T05:50:00.870Z,66.25
2018-12-27T05:51:05.771Z,66.26
2018-12-27T05:52:10.786Z,66.30
2018-12-27T05:53:15.692Z,66.29
2018-12-27T05:54:20.605Z,66.26
2018-12-27T05:55:25.761Z,66.29
2018-12-27T05:56:30.661Z,66.28
2018-12-27T05:57:35.614Z,66.32
2018-12-27T05:58:40.521Z,66.37
2018-12-27T05:59:45.432Z,66.39
2018-12-27T06:00:50.327Z,66.37
2018-12-27T06:01:55.259Z,66.35
2018-12-27T06:03:00.447Z,66.37
2018-12-27T06:04:05.397Z,66.36
2018-12-27T06:05:10.308Z,66.35
2018-12-27T06:06:15.467Z,66.37
2018-12-27T06:07:20.370Z,66.41
2018-12-27T06:08:25.296Z,66.43
2018-12-27T06:09:30.241Z,66.37
2018-12-27T06:10:35.154Z,66.36
2018-12-27T06:11:40.152Z,66.34
2018-12-27T06:12:45.066Z,66.32
2018-12-27T06:13:50.024Z,66.32
2018-12-27T06:14:54.940Z,66.29
2018-12-27T06:16:00.180Z,66.31
2018-12-27T06:17:05.409Z,66.28
2018-12-27T06:18:10.639Z,66.28
2018-12-27T06:19:15.561Z,66.25
2018-12-27T06:20:20.500Z,66.25
2018-12-27T06:21:25.428Z,66.28
2018-12-27T06:22:30.335Z,66.27
2018-12-27T06:23:35.235Z,66.25
2018-12-27T06:24:40.165Z,66.29
2018-12-27T06:25:45.320Z,66.32
2018-12-27T06:26:50.480Z,66.37
2018-12-27T06:27:55.395Z,66.39
2018-12-27T06:29:00.287Z,66.41
2018-12-27T06:30:05.957Z,66.45
2018-12-27T06:31:11.089Z,66.48
2018-12-27T06:32:16.243Z,66.50
2018-12-27T06:33:21.393Z,66.51
2018-12-27T06:34:26.297Z,66.53
2018-12-27T06:35:31.205Z,66.57
2018-12-27T06:36:36.125Z,66.54
2018-12-27T06:37:41.560Z,66.54
2018-12-27T06:38:46.468Z,66.57
2018-12-27T06:39:51.377Z,66.60
2018-12-27T06:40:56.308Z,66.56
2018-12-27T06:42:01.214Z,66.57
2018-12-27T06:43:06.165Z,66.57
2018-12-27T06:44:11.078Z,66.56
2018-12-27T06:45:16.187Z,66.54
2018-12-27T06:46:21.370Z,66.53
2018-12-27T06:47:26.362Z,66.54
2018-12-27T06:48:31.266Z,66.53
2018-12-27T06:49:36.166Z,66.50
2018-12-27T06:50:41.101Z,66.52
2018-12-27T06:51:46.302Z,66.51
2018-12-27T06:52:51.198Z,66.51
2018-12-27T06:53:56.123Z,66.53
2018-12-27T06:55:01.116Z,66.57
2018-12-27T06:56:06.032Z,66.60
2018-12-27T06:57:10.934Z,66.64
2018-12-27T06:58:15.834Z,66.62
2018-12-27T06:59:20.990Z,66.62
2018-12-27T07:00:25.904Z,66.63
2018-12-27T07:01:30.829Z,66.62
2018-12-27T07:02:35.998Z,66.62
2018-12-27T07:03:40.894Z,66.61
2018-12-27T07:04:49.049Z,66.62
2018-12-27T07:05:52.659Z,66.64
2018-12-27T07:06:57.561Z,66.65
2018-12-27T07:08:02.598Z,66.65
2018-12-27T07:09:08.450Z,66.61
2018-12-27T07:10:13.650Z,66.57
2018-12-27T07:11:18.554Z,66.54
2018-12-27T07:12:23.467Z,66.53
2018-12-27T07:13:28.403Z,66.52
2018-12-27T07:14:33.286Z,66.53
2018-12-27T07:15:38.228Z,66.55
2018-12-27T07:16:43.368Z,66.54
2018-12-27T07:17:48.283Z,66.56
2018-12-27T07:18:53.337Z,66.59
2018-12-27T07:19:58.249Z,66.60
2018-12-27T07:21:03.153Z,66.59
2018-12-27T07:22:08.052Z,66.57
2018-12-27T07:23:13.025Z,66.50
2018-12-27T07:24:17.968Z,66.50
2018-12-27T07:25:22.873Z,66.47
2018-12-27T07:26:28.083Z,66.45
2018-12-27T07:27:33.151Z,66.44
2018-12-27T07:28:38.116Z,66.44
2018-12-27T07:29:43.288Z,66.46
2018-12-27T07:30:48.476Z,66.49
2018-12-27T07:31:53.626Z,66.49
2018-12-27T07:32:59.051Z,66.51
2018-12-27T07:34:04.251Z,66.49
2018-12-27T07:35:09.174Z,66.51
2018-12-27T07:36:14.079Z,66.53
2018-12-27T07:37:19.108Z,66.52
2018-12-27T07:38:24.034Z,66.54
2018-12-27T07:39:28.921Z,66.52
2018-12-27T07:40:33.850Z,66.53
2018-12-27T07:41:38.750Z,66.53
2018-12-27T07:42:43.652Z,66.50
2018-12-27T07:43:48.625Z,66.54
2018-12-27T07:44:53.532Z,66.53
2018-12-27T07:45:58.468Z,66.48
2018-12-27T07:47:03.468Z,66.44
2018-12-27T07:48:08.605Z,66.43
2018-12-27T07:49:13.508Z,66.42
2018-12-27T07:50:18.481Z,66.45
2018-12-27T07:51:23.411Z,66.47
2018-12-27T07:52:28.337Z,66.45
2018-12-27T07:53:33.547Z,66.43
2018-12-27T07:54:38.718Z,66.41
2018-12-27T07:55:43.621Z,66.37
2018-12-27T07:56:48.514Z,66.37
2018-12-27T07:57:53.611Z,66.35
2018-12-27T07:58:58.523Z,66.30
2018-12-27T08:00:03.575Z,66.28
2018-12-27T08:01:08.877Z,66.24
2018-12-27T08:02:13.803Z,66.21
2018-12-27T08:03:18.700Z,66.18
2018-12-27T08:04:23.615Z,66.15
2018-12-27T08:05:28.590Z,66.17
2018-12-27T08:06:33.488Z,66.08
2018-12-27T08:07:38.401Z,66.07
2018-12-27T08:08:43.312Z,66.08
2018-12-27T08:09:48.211Z,66.01
2018-12-27T08:10:53.109Z,65.97
2018-12-27T08:11:58.017Z,65.92
2018-12-27T08:13:03.037Z,65.92
2018-12-27T08:14:07.942Z,65.93
2018-12-27T08:15:12.911Z,65.90
2018-12-27T08:16:20.179Z,65.86
2018-12-27T08:17:27.508Z,65.87
2018-12-27T08:18:32.436Z,65.87
2018-12-27T08:19:37.362Z,65.83
2018-12-27T08:20:42.321Z,65.82
2018-12-27T08:21:47.804Z,65.78
2018-12-27T08:22:52.706Z,65.72
2018-12-27T08:23:57.627Z,65.72
2018-12-27T08:25:02.535Z,65.71
2018-12-27T08:26:07.708Z,65.68
2018-12-27T08:27:12.608Z,65.67
2018-12-27T08:28:17.544Z,65.65
2018-12-27T08:29:22.480Z,65.59
2018-12-27T08:30:27.617Z,65.57
2018-12-27T08:31:32.837Z,65.53
2018-12-27T08:32:38.310Z,65.52
2018-12-27T08:33:43.376Z,65.46
2018-12-27T08:34:48.493Z,65.42
2018-12-27T08:35:53.404Z,65.37
2018-12-27T08:36:58.315Z,65.38
2018-12-27T08:38:03.539Z,65.35
2018-12-27T08:39:08.501Z,65.33
2018-12-27T08:40:13.701Z,65.29
2018-12-27T08:41:18.869Z,65.28
2018-12-27T08:42:23.771Z,65.30
2018-12-27T08:43:28.691Z,65.22
2018-12-27T08:44:33.589Z,65.23
2018-12-27T08:45:38.535Z,65.25
2018-12-27T08:46:43.428Z,65.25
2018-12-27T08:47:48.334Z,65.24
2018-12-27T08:48:53.241Z,65.22
2018-12-27T08:49:58.161Z,65.20
2018-12-27T08:51:03.148Z,65.19
2018-12-27T08:52:08.122Z,65.16
2018-12-27T08:53:13.032Z,65.14
2018-12-27T08:54:18.442Z,65.09
2018-12-27T08:55:23.364Z,65.06
2018-12-27T08:56:28.319Z,65.03
2018-12-27T08:57:33.301Z,65.02
2018-12-27T08:58:38.272Z,64.92
2018-12-27T08:59:43.158Z,64.93
2018-12-27T09:00:48.162Z,64.92
2018-12-27T09:01:53.326Z,64.90
2018-12-27T09:02:58.273Z,64.85
2018-12-27T09:04:03.191Z,64.78
2018-12-27T09:05:08.207Z,64.73
2018-12-27T09:06:13.116Z,64.69
2018-12-27T09:07:18.025Z,64.68
2018-12-27T09:08:23.215Z,64.64
2018-12-27T09:09:28.185Z,64.61
2018-12-27T09:10:33.090Z,64.57
2018-12-27T09:11:38.076Z,64.53
2018-12-27T09:12:43.347Z,64.49
2018-12-27T09:13:48.206Z,64.45
2018-12-27T09:14:53.198Z,64.35
2018-12-27T09:15:58.094Z,64.37
2018-12-27T09:17:03.074Z,64.35
2018-12-27T09:18:08.004Z,64.31
2018-12-27T09:19:13.236Z,64.25
2018-12-27T09:20:18.210Z,64.22
2018-12-27T09:21:23.111Z,64.19
2018-12-27T09:22:28.107Z,64.12
2018-12-27T09:23:33.016Z,64.09
2018-12-27T09:24:37.906Z,64.08
2018-12-27T09:25:43.057Z,64.03
2018-12-27T09:26:47.948Z,63.93
2018-12-27T09:27:52.930Z,63.91
2018-12-27T09:28:58.174Z,63.81
2018-12-27T09:30:03.072Z,63.80
2018-12-27T09:31:08.241Z,63.78
2018-12-27T09:32:13.472Z,63.73
2018-12-27T09:33:18.666Z,63.66
2018-12-27T09:34:23.605Z,63.58
2018-12-27T09:35:28.555Z,63.60
2018-12-27T09:36:33.449Z,63.57
2018-12-27T09:37:38.426Z,63.57
2018-12-27T09:38:43.553Z,63.56
2018-12-27T09:39:48.499Z,63.55
2018-12-27T09:40:53.409Z,63.51
2018-12-27T09:41:58.362Z,63.45
2018-12-27T09:43:03.267Z,63.35
2018-12-27T09:44:08.247Z,63.29
2018-12-27T09:45:13.163Z,63.25
2018-12-27T09:46:18.073Z,63.18
2018-12-27T09:47:22.974Z,63.10
2018-12-27T09:48:27.878Z,63.09
2018-12-27T09:49:32.769Z,63.05
2018-12-27T09:50:38.010Z,63.09
2018-12-27T09:51:42.932Z,63.06
2018-12-27T09:52:47.838Z,63.06
2018-12-27T09:53:52.752Z,62.99
2018-12-27T09:54:57.896Z,62.97
2018-12-27T09:56:02.861Z,62.97
2018-12-27T09:57:07.778Z,62.98
2018-12-27T09:58:12.994Z,62.91
2018-12-27T09:59:17.876Z,62.90
2018-12-27T10:00:22.810Z,62.82
2018-12-27T10:01:27.756Z,62.80
2018-12-27T10:02:32.654Z,62.73
2018-12-27T10:03:37.710Z,62.65
2018-12-27T10:04:42.696Z,62.57
2018-12-27T10:05:47.692Z,62.54
2018-12-27T10:06:52.854Z,62.49
2018-12-27T10:07:57.823Z,62.47
2018-12-27T10:09:03.526Z,62.39
2018-12-27T10:10:08.509Z,62.33
2018-12-27T10:11:13.435Z,62.28
2018-12-27T10:12:18.362Z,62.21
2018-12-27T10:13:23.292Z,62.20
2018-12-27T10:14:28.270Z,62.13
2018-12-27T10:15:33.266Z,62.19
2018-12-27T10:16:38.247Z,62.14
2018-12-27T10:17:43.167Z,62.10
2018-12-27T10:18:48.129Z,62.07
2018-12-27T10:19:53.057Z,62.01
2018-12-27T10:20:57.991Z,61.94
2018-12-27T10:22:03.221Z,61.90
2018-12-27T10:23:08.214Z,61.89
2018-12-27T10:24:13.387Z,61.80
2018-12-27T10:25:18.339Z,61.84
2018-12-27T10:26:23.254Z,61.77
2018-12-27T10:27:28.149Z,61.80
2018-12-27T10:28:33.080Z,61.82
2018-12-27T10:29:38.012Z,61.76
2018-12-27T10:30:42.925Z,61.71
2018-12-27T10:31:47.820Z,61.60
2018-12-27T10:32:52.752Z,61.64
2018-12-27T10:33:57.933Z,61.63
2018-12-27T10:35:02.944Z,61.62
2018-12-27T10:36:08.080Z,61.56
2018-12-27T10:37:13.081Z,61.55
2018-12-27T10:38:18.080Z,61.48
2018-12-27T10:39:23.096Z,61.54
2018-12-27T10:40:28.316Z,61.54
2018-12-27T10:41:33.227Z,61.54
2018-12-27T10:42:38.168Z,61.51
2018-12-27T10:43:43.107Z,61.50
2018-12-27T10:44:48.053Z,61.45
2018-12-27T10:45:52.947Z,61.44
2018-12-27T10:46:57.853Z,61.40
2018-12-27T10:48:03.059Z,61.37
2018-12-27T10:49:07.964Z,61.33
2018-12-27T10:50:12.974Z,61.30
2018-12-27T10:51:18.121Z,61.25
2018-12-27T10:52:23.041Z,61.21
2018-12-27T10:53:28.204Z,61.20
2018-12-27T10:54:33.365Z,61.19
2018-12-27T10:55:38.292Z,61.17
2018-12-27T10:56:43.202Z,61.16
2018-12-27T10:57:48.181Z,61.12
2018-12-27T10:58:53.092Z,61.12
2018-12-27T10:59:57.995Z,61.11
2018-12-27T11:01:02.921Z,61.09
2018-12-27T11:02:08.083Z,61.09
2018-12-27T11:03:12.997Z,61.08
2018-12-27T11:04:17.937Z,61.09
2018-12-27T11:05:22.849Z,61.06
2018-12-27T11:06:28.195Z,61.07
2018-12-27T11:07:33.097Z,61.04
2018-12-27T11:08:38.005Z,61.06
2018-12-27T11:09:42.897Z,61.05
2018-12-27T11:10:47.829Z,61.04
2018-12-27T11:11:52.833Z,61.03
2018-12-27T11:12:58.006Z,61.01
2018-12-27T11:14:02.971Z,61.00
2018-12-27T11:15:08.049Z,60.95
2018-12-27T11:16:12.916Z,60.93
2018-12-27T11:17:17.848Z,60.89
2018-12-27T11:18:22.801Z,60.85
2018-12-27T11:19:27.733Z,60.82
2018-12-27T11:20:32.827Z,60.74
2018-12-27T11:21:37.776Z,60.66
2018-12-27T11:22:42.717Z,60.61
2018-12-27T11:23:49.397Z,60.57
2018-12-27T11:24:54.628Z,60.56
2018-12-27T11:25:59.605Z,60.53
2018-12-27T11:27:04.509Z,60.51
2018-12-27T11:28:09.506Z,60.41
2018-12-27T11:29:14.416Z,60.33
2018-12-27T11:30:19.334Z,60.26
2018-12-27T11:31:24.474Z,60.17
2018-12-27T11:32:29.427Z,60.06
2018-12-27T11:33:34.349Z,59.99
2018-12-27T11:34:39.332Z,59.85
2018-12-27T11:35:44.282Z,59.79
2018-12-27T11:36:49.425Z,59.75
2018-12-27T11:37:54.582Z,59.70
2018-12-27T11:38:59.519Z,59.69
2018-12-27T11:40:04.799Z,59.63
2018-12-27T11:41:09.943Z,59.56
2018-12-27T11:42:14.850Z,59.54
2018-12-27T11:43:19.848Z,59.58
2018-12-27T11:44:24.771Z,59.58
2018-12-27T11:45:29.703Z,59.57
2018-12-27T11:46:35.147Z,59.56
2018-12-27T11:47:40.063Z,59.56
2018-12-27T11:48:44.979Z,59.53
2018-12-27T11:49:49.967Z,59.53
2018-12-27T11:50:55.129Z,59.50
2018-12-27T11:52:00.028Z,59.46
2018-12-27T11:53:04.996Z,59.49
2018-12-27T11:54:09.898Z,59.47
2018-12-27T11:55:14.894Z,59.45
2018-12-27T11:56:20.046Z,59.42
2018-12-27T11:57:25.234Z,59.39
2018-12-27T11:58:30.123Z,59.37
2018-12-27T11:59:35.092Z,59.38
2018-12-27T12:00:40.021Z,59.36
2018-12-27T12:01:44.918Z,59.33
2018-12-27T12:02:49.825Z,59.32
2018-12-27T12:03:54.754Z,59.32
2018-12-27T12:04:59.727Z,59.29
2018-12-27T12:06:04.648Z,59.22
2018-12-27T12:07:09.545Z,59.19
2018-12-27T12:08:14.448Z,59.18
2018-12-27T12:09:19.709Z,59.14
2018-12-27T12:10:24.912Z,59.11
2018-12-27T12:11:29.826Z,59.09
2018-12-27T12:12:34.807Z,59.05
2018-12-27T12:13:40.048Z,59.02
2018-12-27T12:14:44.983Z,59.02
2018-12-27T12:15:49.916Z,59.01
2018-12-27T12:16:54.836Z,59.01
2018-12-27T12:17:59.762Z,59.01
2018-12-27T12:19:04.933Z,58.94
2018-12-27T12:20:09.849Z,58.92
2018-12-27T12:21:14.852Z,58.89
2018-12-27T12:22:19.786Z,58.83
2018-12-27T12:23:24.681Z,58.79
2018-12-27T12:24:29.859Z,58.71
2018-12-27T12:25:35.008Z,58.64
2018-12-27T12:26:39.903Z,58.61
2018-12-27T12:27:45.095Z,58.61
2018-12-27T12:28:50.334Z,58.57
2018-12-27T12:29:55.395Z,58.54
2018-12-27T12:31:00.442Z,58.54
2018-12-27T12:32:05.419Z,58.51
2018-12-27T12:33:10.590Z,58.51
2018-12-27T12:34:15.553Z,58.48
2018-12-27T12:35:20.445Z,58.47
2018-12-27T12:36:25.605Z,58.44
2018-12-27T12:37:30.687Z,58.49
2018-12-27T12:38:36.072Z,58.53
2018-12-27T12:39:41.230Z,58.52
2018-12-27T12:40:46.165Z,58.54
2018-12-27T12:41:51.084Z,58.53
2018-12-27T12:42:56.225Z,58.51
2018-12-27T12:44:01.147Z,58.49
2018-12-27T12:45:06.961Z,58.47
2018-12-27T12:46:11.868Z,58.46
2018-12-27T12:47:16.845Z,58.47
2018-12-27T12:48:21.777Z,58.49
2018-12-27T12:49:26.692Z,58.48
2018-12-27T12:50:31.675Z,58.46
2018-12-27T12:51:36.657Z,58.42
2018-12-27T12:52:41.575Z,58.44
2018-12-27T12:53:46.481Z,58.42
2018-12-27T12:54:51.402Z,58.42
2018-12-27T12:55:56.574Z,58.41
2018-12-27T12:57:01.705Z,58.42
2018-12-27T12:58:06.972Z,58.43
2018-12-27T12:59:11.867Z,58.45
2018-12-27T13:00:16.779Z,58.48
2018-12-27T13:01:21.932Z,58.48
2018-12-27T13:02:26.847Z,58.48
2018-12-27T13:03:31.909Z,58.44
2018-12-27T13:04:37.146Z,58.39
2018-12-27T13:05:42.078Z,58.35
2018-12-27T13:06:47.266Z,58.31
2018-12-27T13:07:52.255Z,58.28
2018-12-27T13:08:57.167Z,58.29
2018-12-27T13:10:02.088Z,58.33
2018-12-27T13:11:07.022Z,58.32
2018-12-27T13:12:12.045Z,58.32
2018-12-27T13:13:17.237Z,58.32
2018-12-27T13:14:22.417Z,58.37
2018-12-27T13:15:27.399Z,58.42
2018-12-27T13:16:32.676Z,58.48
2018-12-27T13:17:37.554Z,58.52
2018-12-27T13:18:47.315Z,58.58
2018-12-27T13:19:49.346Z,58.59
2018-12-27T13:20:54.253Z,58.64
2018-12-27T13:21:59.180Z,58.67
2018-12-27T13:23:04.092Z,58.70
2018-12-27T13:24:09.008Z,58.69
2018-12-27T13:25:13.922Z,58.72
2018-12-27T13:26:19.062Z,58.74
2018-12-27T13:27:23.989Z,58.75
2018-12-27T13:28:29.137Z,58.77
2018-12-27T13:29:34.532Z,58.79
2018-12-27T13:30:39.452Z,58.82
2018-12-27T13:31:44.360Z,58.80
2018-12-27T13:32:49.305Z,58.75
2018-12-27T13:33:54.228Z,58.72
2018-12-27T13:34:59.151Z,58.68
2018-12-27T13:36:04.625Z,58.65
2018-12-27T13:37:09.607Z,58.62
2018-12-27T13:38:14.536Z,58.60
2018-12-27T13:39:19.442Z,58.59
2018-12-27T13:40:24.585Z,58.58
2018-12-27T13:41:29.781Z,58.57
2018-12-27T13:42:34.929Z,58.59
2018-12-27T13:43:39.873Z,58.63
2018-12-27T13:44:44.789Z,58.64
2018-12-27T13:45:49.773Z,58.65
2018-12-27T13:46:54.678Z,58.67
2018-12-27T13:47:59.663Z,58.70
2018-12-27T13:49:04.825Z,58.74
2018-12-27T13:50:09.899Z,58.78
2018-12-27T13:51:14.810Z,58.81
2018-12-27T13:52:19.770Z,58.86
2018-12-27T13:53:24.670Z,58.91
2018-12-27T13:54:29.756Z,58.93
2018-12-27T13:55:34.660Z,58.92
2018-12-27T13:56:39.565Z,58.97
2018-12-27T13:57:44.479Z,59.02